Atlantic, Maine
Current Conditions -  °F | °C
As of 12:35 PM on Friday 31 Oct 2014 (Local Time) from KBHB Reporting Station
Clear Clear  
Wind Chill: 10°   Ceiling: Unl
Heat Index: 10°   Visibility: 10mi
Dew Point:   Wind: 0mph
Humidity: 54%   Direction: NA
Pressure: 30.02"   Gusts: NA
Location:  44.1716°N, 68.4245°W
Report Text: KBHB 311635Z AUTO 00000KT 10SM CLR 10/01 A3002 RMK AO1
Loading
Personal Weather Stations






























Interactive Weather Map
Tropical Storm Tracking
New forecast layout! Learn more

10-Day Weather Forecast

Advertisements
Track Severe Weather on mobile